createdAt,value
2022-10-12T00:00:10.991Z,0.00
2022-10-12T00:01:11.034Z,0.00
2022-10-12T00:02:10.786Z,0.00
2022-10-12T00:03:13.151Z,0.00
2022-10-12T00:04:10.988Z,0.00
2022-10-12T00:05:11.005Z,0.00
2022-10-12T00:06:10.663Z,0.00
2022-10-12T00:07:10.664Z,0.00
2022-10-12T00:08:10.639Z,0.00
2022-10-12T00:09:10.631Z,0.00
2022-10-12T00:10:10.603Z,0.00
2022-10-12T00:11:10.652Z,0.00
2022-10-12T00:12:10.600Z,0.00
2022-10-12T00:13:10.591Z,0.00
2022-10-12T00:14:10.564Z,0.00
2022-10-12T00:15:10.591Z,0.00
2022-10-12T00:16:10.546Z,0.00
2022-10-12T00:17:10.533Z,0.00
2022-10-12T00:18:10.525Z,0.00
2022-10-12T00:19:10.519Z,0.00
2022-10-12T00:20:10.499Z,0.00
2022-10-12T00:21:10.511Z,0.00
2022-10-12T00:22:10.492Z,0.00
2022-10-12T00:23:10.472Z,0.00
2022-10-12T00:24:10.461Z,0.00
2022-10-12T00:25:10.452Z,0.00
2022-10-12T00:26:10.444Z,0.00
2022-10-12T00:27:10.443Z,0.00
2022-10-12T00:28:10.469Z,0.00
2022-10-12T00:29:10.401Z,0.00
2022-10-12T00:30:10.395Z,0.00
2022-10-12T00:31:10.411Z,0.00
2022-10-12T00:32:10.377Z,0.00
2022-10-12T00:33:10.372Z,0.00
2022-10-12T00:34:10.392Z,0.00
2022-10-12T00:35:10.444Z,0.00
2022-10-12T00:36:10.422Z,0.00
2022-10-12T00:37:10.813Z,0.00
2022-10-12T00:38:10.511Z,0.00
2022-10-12T00:39:10.524Z,0.00
2022-10-12T00:40:10.280Z,0.00
2022-10-12T00:41:10.304Z,0.00
2022-10-12T00:42:10.252Z,0.00
2022-10-12T00:43:10.245Z,0.00
2022-10-12T00:44:10.240Z,0.00
2022-10-12T00:45:10.240Z,0.00
2022-10-12T00:46:10.200Z,0.00
2022-10-12T00:47:10.268Z,0.00
2022-10-12T00:48:10.176Z,0.00
2022-10-12T00:49:10.200Z,0.00
2022-10-12T00:50:10.160Z,0.00
2022-10-12T00:51:10.172Z,0.00
2022-10-12T00:52:10.146Z,0.00
2022-10-12T00:53:11.060Z,0.00
2022-10-12T00:54:10.452Z,0.00
2022-10-12T00:55:10.113Z,0.00
2022-10-12T00:56:10.092Z,0.00
2022-10-12T00:57:10.125Z,0.00
2022-10-12T00:58:10.083Z,0.00
2022-10-12T00:59:10.068Z,0.00
2022-10-12T01:00:10.064Z,0.00
2022-10-12T01:01:10.108Z,0.00
2022-10-12T01:02:10.030Z,0.00
2022-10-12T01:03:10.068Z,0.00
2022-10-12T01:04:10.044Z,0.00
2022-10-12T01:05:10.012Z,0.00
2022-10-12T01:06:10.002Z,0.00
2022-10-12T01:07:09.993Z,0.00
2022-10-12T01:08:09.988Z,0.00
2022-10-12T01:09:09.993Z,0.00
2022-10-12T01:10:09.973Z,0.00
2022-10-12T01:11:09.933Z,0.00
2022-10-12T01:12:09.927Z,0.00
2022-10-12T01:13:09.956Z,0.00
2022-10-12T01:14:09.992Z,0.00
2022-10-12T01:15:09.880Z,0.00
2022-10-12T01:16:09.868Z,0.00
2022-10-12T01:17:09.877Z,0.00
2022-10-12T01:18:09.845Z,0.00
2022-10-12T01:19:09.834Z,0.00
2022-10-12T01:20:09.853Z,0.00
2022-10-12T01:21:09.816Z,0.00
2022-10-12T01:22:09.804Z,0.00
2022-10-12T01:23:09.801Z,0.00
2022-10-12T01:24:09.800Z,0.00
2022-10-12T01:25:09.780Z,0.00
2022-10-12T01:26:09.753Z,0.00
2022-10-12T01:27:09.781Z,0.00
2022-10-12T01:28:09.802Z,0.00
2022-10-12T01:29:09.753Z,0.00
2022-10-12T01:30:09.707Z,0.00
2022-10-12T01:31:09.713Z,0.00
2022-10-12T01:32:09.697Z,0.00
2022-10-12T01:33:09.684Z,0.00
2022-10-12T01:34:10.303Z,0.00
2022-10-12T01:35:09.706Z,0.00
2022-10-12T01:36:09.649Z,0.00
2022-10-12T01:37:09.654Z,0.00
2022-10-12T01:38:09.632Z,0.00
2022-10-12T01:39:09.614Z,0.00
2022-10-12T01:40:09.621Z,0.00
2022-10-12T01:41:09.602Z,0.00
2022-10-12T01:42:09.581Z,0.00
2022-10-12T01:43:09.594Z,0.00
2022-10-12T01:44:09.553Z,0.00
2022-10-12T01:45:09.561Z,0.00
2022-10-12T01:46:09.554Z,0.00
2022-10-12T01:47:09.554Z,0.00
2022-10-12T01:48:09.513Z,0.00
2022-10-12T01:49:09.517Z,0.00
2022-10-12T01:50:09.501Z,0.00
2022-10-12T01:51:09.474Z,0.00
2022-10-12T01:52:09.470Z,0.00
2022-10-12T01:53:09.473Z,0.00
2022-10-12T01:54:09.553Z,0.00
2022-10-12T01:55:09.486Z,0.00
2022-10-12T01:56:09.455Z,0.00
2022-10-12T01:57:09.408Z,0.00
2022-10-12T01:58:09.498Z,0.00
2022-10-12T01:59:09.402Z,0.00
2022-10-12T02:00:09.382Z,0.00
2022-10-12T02:01:09.517Z,0.00
2022-10-12T02:02:09.458Z,0.00
2022-10-12T02:03:09.402Z,0.00
2022-10-12T02:04:09.409Z,0.00
2022-10-12T02:05:09.374Z,0.00
2022-10-12T02:06:09.374Z,0.00
2022-10-12T02:07:09.367Z,0.00
2022-10-12T02:08:09.383Z,0.00
2022-10-12T02:09:09.362Z,0.00
2022-10-12T02:10:09.373Z,0.00
2022-10-12T02:11:09.397Z,0.00
2022-10-12T02:12:09.521Z,0.00
2022-10-12T02:13:09.263Z,0.00
2022-10-12T02:14:09.256Z,0.00
2022-10-12T02:15:09.222Z,0.00
2022-10-12T02:16:09.662Z,0.00
2022-10-12T02:17:09.193Z,0.00
2022-10-12T02:18:09.190Z,0.00
2022-10-12T02:19:09.150Z,0.00
2022-10-12T02:20:09.162Z,0.00
2022-10-12T02:21:09.150Z,0.00
2022-10-12T02:22:09.147Z,0.00
2022-10-12T02:23:09.134Z,0.00
2022-10-12T02:24:09.157Z,0.00
2022-10-12T02:25:09.180Z,0.00
2022-10-12T02:26:09.129Z,0.00
2022-10-12T02:27:09.135Z,0.00
2022-10-12T02:28:09.335Z,0.00
2022-10-12T02:29:09.138Z,0.00
2022-10-12T02:30:09.109Z,0.00
2022-10-12T02:31:09.031Z,0.00
2022-10-12T02:32:09.052Z,0.00
2022-10-12T02:33:09.031Z,0.00
2022-10-12T02:34:08.991Z,0.00
2022-10-12T02:35:08.984Z,0.00
2022-10-12T02:36:08.983Z,0.00
2022-10-12T02:37:08.959Z,0.00
2022-10-12T02:38:08.954Z,0.00
2022-10-12T02:39:08.952Z,0.00
2022-10-12T02:40:08.922Z,0.00
2022-10-12T02:41:08.902Z,0.00
2022-10-12T02:42:08.910Z,0.00
2022-10-12T02:43:10.849Z,0.00
2022-10-12T02:44:08.902Z,0.00
2022-10-12T02:45:08.851Z,0.00
2022-10-12T02:46:08.862Z,0.00
2022-10-12T02:47:08.830Z,0.00
2022-10-12T02:48:08.835Z,0.00
2022-10-12T02:49:08.842Z,0.00
2022-10-12T02:50:08.810Z,0.00
2022-10-12T02:51:08.790Z,0.00
2022-10-12T02:52:08.790Z,0.00
2022-10-12T02:53:08.783Z,0.00
2022-10-12T02:54:08.790Z,0.00
2022-10-12T02:55:08.759Z,0.00
2022-10-12T02:56:08.774Z,0.00
2022-10-12T02:57:08.727Z,0.00
2022-10-12T02:58:08.730Z,0.00
2022-10-12T02:59:08.722Z,0.00
2022-10-12T03:00:08.704Z,0.00
2022-10-12T03:01:08.724Z,0.00
2022-10-12T03:02:08.671Z,0.00
2022-10-12T03:03:08.850Z,0.00
2022-10-12T03:04:08.666Z,0.00
2022-10-12T03:05:08.662Z,0.00
2022-10-12T03:06:08.651Z,0.00
2022-10-12T03:07:08.639Z,0.00
2022-10-12T03:08:08.611Z,0.00
2022-10-12T03:09:08.602Z,0.00
2022-10-12T03:10:08.595Z,0.00
2022-10-12T03:11:08.567Z,0.00
2022-10-12T03:12:08.551Z,0.00
2022-10-12T03:13:08.560Z,0.00
2022-10-12T03:14:08.543Z,0.00
2022-10-12T03:15:08.551Z,0.00
2022-10-12T03:16:08.731Z,0.00
2022-10-12T03:17:08.492Z,0.00
2022-10-12T03:18:08.507Z,0.00
2022-10-12T03:19:08.479Z,0.00
2022-10-12T03:20:08.475Z,0.00
2022-10-12T03:21:08.491Z,0.00
2022-10-12T03:22:08.583Z,0.00
2022-10-12T03:23:08.543Z,0.00
2022-10-12T03:24:08.436Z,0.00
2022-10-12T03:25:08.404Z,0.00
2022-10-12T03:26:08.441Z,0.00
2022-10-12T03:27:08.384Z,0.00
2022-10-12T03:28:08.411Z,0.00
2022-10-12T03:29:08.364Z,0.00
2022-10-12T03:30:08.376Z,0.00
2022-10-12T03:31:08.339Z,0.00
2022-10-12T03:32:08.343Z,0.00
2022-10-12T03:33:08.323Z,0.00
2022-10-12T03:34:08.319Z,0.00
2022-10-12T03:35:08.303Z,0.00
2022-10-12T03:36:08.312Z,0.00
2022-10-12T03:37:08.275Z,0.00
2022-10-12T03:38:08.271Z,0.00
2022-10-12T03:39:08.243Z,0.00
2022-10-12T03:40:08.263Z,0.00
2022-10-12T03:41:08.244Z,0.00
2022-10-12T03:42:08.251Z,0.00
2022-10-12T03:43:08.659Z,0.00
2022-10-12T03:44:08.203Z,0.00
2022-10-12T03:45:08.192Z,0.00
2022-10-12T03:46:08.179Z,0.00
2022-10-12T03:47:08.191Z,0.00
2022-10-12T03:48:08.181Z,0.00
2022-10-12T03:49:08.141Z,0.00
2022-10-12T03:50:08.144Z,0.00
2022-10-12T03:51:08.129Z,0.00
2022-10-12T03:52:08.119Z,0.00
2022-10-12T03:53:08.100Z,0.00
2022-10-12T03:54:08.091Z,0.00
2022-10-12T03:55:08.080Z,0.00
2022-10-12T03:56:08.073Z,0.00
2022-10-12T03:57:08.040Z,0.00
2022-10-12T03:58:08.051Z,0.00
2022-10-12T03:59:08.032Z,0.00
2022-10-12T04:00:08.033Z,0.00
2022-10-12T04:01:08.037Z,0.00
2022-10-12T04:02:11.018Z,0.00
2022-10-12T04:03:09.028Z,0.00
2022-10-12T04:04:07.974Z,0.00
2022-10-12T04:05:07.992Z,0.00
2022-10-12T04:06:09.541Z,0.00
2022-10-12T04:07:07.936Z,0.00
2022-10-12T04:08:07.954Z,0.00
2022-10-12T04:09:07.933Z,0.00
2022-10-12T04:10:07.925Z,0.00
2022-10-12T04:11:07.896Z,0.00
2022-10-12T04:12:07.912Z,0.00
2022-10-12T04:13:07.885Z,0.00
2022-10-12T04:14:07.953Z,0.00
2022-10-12T04:15:08.039Z,0.00
2022-10-12T04:16:07.880Z,0.00
2022-10-12T04:17:07.841Z,0.00
2022-10-12T04:18:07.826Z,0.00
2022-10-12T04:19:07.821Z,0.00
2022-10-12T04:20:07.820Z,0.00
2022-10-12T04:21:07.832Z,0.00
2022-10-12T04:22:07.820Z,0.00
2022-10-12T04:23:07.920Z,0.00
2022-10-12T04:24:07.788Z,0.00
2022-10-12T04:25:07.732Z,0.00
2022-10-12T04:26:07.757Z,0.00
2022-10-12T04:27:07.701Z,0.00
2022-10-12T04:28:07.821Z,0.00
2022-10-12T04:29:07.697Z,0.00
2022-10-12T04:30:07.692Z,0.00
2022-10-12T04:31:07.688Z,0.00
2022-10-12T04:32:12.218Z,0.00
2022-10-12T04:33:07.633Z,0.00
2022-10-12T04:34:07.653Z,0.00
2022-10-12T04:35:07.763Z,0.00
2022-10-12T04:36:07.695Z,0.00
2022-10-12T04:37:07.597Z,0.00
2022-10-12T04:38:07.657Z,0.00
2022-10-12T04:39:07.579Z,0.00
2022-10-12T04:40:07.617Z,0.00
2022-10-12T04:41:07.549Z,0.00
2022-10-12T04:42:07.568Z,0.00
2022-10-12T04:43:07.548Z,0.00
2022-10-12T04:44:07.521Z,0.00
2022-10-12T04:45:07.510Z,0.00
2022-10-12T04:46:07.501Z,0.00
2022-10-12T04:47:07.483Z,0.00
2022-10-12T04:48:07.744Z,0.00
2022-10-12T04:49:07.481Z,0.00
2022-10-12T04:50:07.453Z,0.00
2022-10-12T04:51:07.422Z,0.00
2022-10-12T04:52:07.430Z,0.00
2022-10-12T04:53:07.409Z,0.00
2022-10-12T04:54:07.425Z,0.00
2022-10-12T04:55:07.389Z,0.00
2022-10-12T04:56:07.381Z,0.00
2022-10-12T04:57:07.361Z,0.00
2022-10-12T04:58:07.394Z,0.00
2022-10-12T04:59:07.369Z,0.00
2022-10-12T05:00:07.359Z,0.00
2022-10-12T05:01:07.367Z,0.00
2022-10-12T05:02:07.321Z,0.00
2022-10-12T05:03:07.299Z,0.00
2022-10-12T05:04:07.301Z,0.00
2022-10-12T05:05:07.419Z,0.00
2022-10-12T05:06:07.270Z,0.00
2022-10-12T05:07:07.253Z,0.00
2022-10-12T05:08:07.237Z,0.00
2022-10-12T05:09:07.249Z,0.00
2022-10-12T05:10:07.230Z,0.00
2022-10-12T05:11:07.212Z,0.00
2022-10-12T05:12:07.342Z,0.00
2022-10-12T05:13:07.177Z,0.00
2022-10-12T05:14:07.230Z,0.00
2022-10-12T05:15:07.157Z,0.00
2022-10-12T05:16:07.149Z,0.00
2022-10-12T05:17:07.133Z,0.00
2022-10-12T05:18:07.521Z,0.00
2022-10-12T05:19:07.109Z,0.00
2022-10-12T05:20:07.132Z,0.00
2022-10-12T05:21:07.091Z,4.00
2022-10-12T05:22:07.089Z,4.00
2022-10-12T05:23:07.078Z,0.00
2022-10-12T05:24:07.061Z,4.00
2022-10-12T05:25:07.053Z,4.00
2022-10-12T05:26:07.058Z,0.00
2022-10-12T05:27:07.019Z,4.00
2022-10-12T05:28:07.394Z,4.00
2022-10-12T05:29:07.002Z,4.00
2022-10-12T05:30:06.990Z,4.00
2022-10-12T05:31:07.034Z,4.00
2022-10-12T05:32:07.118Z,4.00
2022-10-12T05:33:06.966Z,8.00
2022-10-12T05:34:06.958Z,8.00
2022-10-12T05:35:06.931Z,8.00
2022-10-12T05:36:06.930Z,12.00
2022-10-12T05:37:06.935Z,12.00
2022-10-12T05:38:06.919Z,16.00
2022-10-12T05:39:06.878Z,16.00
2022-10-12T05:40:06.878Z,20.00
2022-10-12T05:41:06.882Z,20.00
2022-10-12T05:42:06.851Z,24.00
2022-10-12T05:43:06.839Z,32.00
2022-10-12T05:44:06.829Z,32.00
2022-10-12T05:45:06.822Z,36.00
2022-10-12T05:46:08.262Z,40.00
2022-10-12T05:47:06.882Z,44.00
2022-10-12T05:48:06.824Z,48.00
2022-10-12T05:49:06.792Z,56.00
2022-10-12T05:50:06.790Z,60.00
2022-10-12T05:51:06.750Z,64.00
2022-10-12T05:52:06.826Z,68.00
2022-10-12T05:53:06.730Z,76.00
2022-10-12T05:54:06.718Z,80.00
2022-10-12T05:55:06.750Z,80.00
2022-10-12T05:56:06.712Z,88.00
2022-10-12T05:57:06.718Z,96.00
2022-10-12T05:58:06.759Z,100.00
2022-10-12T05:59:06.658Z,104.00
2022-10-12T06:00:06.659Z,112.00
2022-10-12T06:01:06.683Z,120.00
2022-10-12T06:02:06.699Z,128.00
2022-10-12T06:03:06.613Z,136.00
2022-10-12T06:04:06.614Z,144.00
2022-10-12T06:05:06.596Z,156.00
2022-10-12T06:06:06.627Z,168.00
2022-10-12T06:07:06.573Z,180.00
2022-10-12T06:08:06.571Z,192.00
2022-10-12T06:09:06.555Z,200.00
2022-10-12T06:10:06.551Z,212.00
2022-10-12T06:11:06.531Z,224.00
2022-10-12T06:12:07.199Z,236.00
2022-10-12T06:13:06.519Z,248.00
2022-10-12T06:14:06.492Z,256.00
2022-10-12T06:15:06.487Z,268.00
2022-10-12T06:16:06.478Z,276.00
2022-10-12T06:17:06.487Z,284.00
2022-10-12T06:18:06.439Z,292.00
2022-10-12T06:19:06.447Z,296.00
2022-10-12T06:20:06.422Z,300.00
2022-10-12T06:21:28.808Z,304.00
2022-10-12T06:22:07.399Z,308.00
2022-10-12T06:23:06.414Z,312.00
2022-10-12T06:24:06.386Z,312.00
2022-10-12T06:25:06.367Z,312.00
2022-10-12T06:26:06.364Z,320.00
2022-10-12T06:27:06.371Z,328.00
2022-10-12T06:28:06.349Z,332.00
2022-10-12T06:29:06.339Z,348.00
2022-10-12T06:30:06.315Z,352.00
2022-10-12T06:31:06.312Z,364.00
2022-10-12T06:32:07.067Z,368.00
2022-10-12T06:33:06.280Z,372.00
2022-10-12T06:34:06.266Z,384.00
2022-10-12T06:35:06.260Z,388.00
2022-10-12T06:36:06.246Z,400.00
2022-10-12T06:37:06.275Z,408.00
2022-10-12T06:38:06.272Z,424.00
2022-10-12T06:39:06.271Z,436.00
2022-10-12T06:40:06.203Z,444.00
2022-10-12T06:41:06.187Z,452.00
2022-10-12T06:42:06.181Z,460.00
2022-10-12T06:43:06.167Z,464.00
2022-10-12T06:44:06.171Z,468.00
2022-10-12T06:45:06.156Z,476.00
2022-10-12T06:46:06.145Z,488.00
2022-10-12T06:47:06.119Z,496.00
2022-10-12T06:48:06.120Z,508.00
2022-10-12T06:49:06.106Z,508.00
2022-10-12T06:50:06.119Z,512.00
2022-10-12T06:51:06.080Z,512.00
2022-10-12T06:52:06.067Z,508.00
2022-10-12T06:53:06.061Z,508.00
2022-10-12T06:54:06.051Z,516.00
2022-10-12T06:55:06.048Z,524.00
2022-10-12T06:56:06.011Z,532.00
2022-10-12T06:57:06.015Z,544.00
2022-10-12T06:58:05.991Z,544.00
2022-10-12T06:59:06.000Z,552.00
2022-10-12T07:00:06.068Z,556.00
2022-10-12T07:01:05.967Z,560.00
2022-10-12T07:02:05.971Z,568.00
2022-10-12T07:03:05.956Z,572.00
2022-10-12T07:04:05.991Z,576.00
2022-10-12T07:05:05.996Z,584.00
2022-10-12T07:06:06.077Z,592.00
2022-10-12T07:07:06.076Z,596.00
2022-10-12T07:08:06.080Z,596.00
2022-10-12T07:09:06.169Z,600.00
2022-10-12T07:10:06.131Z,612.00
2022-10-12T07:11:06.188Z,612.00
2022-10-12T07:12:05.840Z,620.00
2022-10-12T07:13:05.837Z,628.00
2022-10-12T07:14:05.820Z,632.00
2022-10-12T07:15:05.822Z,636.00
2022-10-12T07:16:06.231Z,640.00
2022-10-12T07:17:05.820Z,644.00
2022-10-12T07:18:05.760Z,652.00
2022-10-12T07:19:05.777Z,656.00
2022-10-12T07:20:05.748Z,664.00
2022-10-12T07:21:05.782Z,672.00
2022-10-12T07:22:05.729Z,676.00
2022-10-12T07:23:05.725Z,684.00
2022-10-12T07:24:05.716Z,688.00
2022-10-12T07:25:05.700Z,692.00
2022-10-12T07:26:05.696Z,696.00
2022-10-12T07:27:05.701Z,704.00
2022-10-12T07:28:05.657Z,708.00
2022-10-12T07:29:05.656Z,712.00
2022-10-12T07:30:05.640Z,720.00
2022-10-12T07:31:05.633Z,724.00
2022-10-12T07:32:05.616Z,728.00
2022-10-12T07:33:05.628Z,740.00
2022-10-12T07:34:05.588Z,744.00
2022-10-12T07:35:05.590Z,744.00
2022-10-12T07:36:14.677Z,760.00
2022-10-12T07:37:06.868Z,764.00
2022-10-12T07:38:05.547Z,780.00
2022-10-12T07:39:05.537Z,784.00
2022-10-12T07:40:05.521Z,796.00
2022-10-12T07:41:05.636Z,800.00
2022-10-12T07:42:05.508Z,816.00
2022-10-12T07:43:15.662Z,788.00
2022-10-12T07:44:06.476Z,756.00
2022-10-12T07:45:05.516Z,836.00
2022-10-12T07:46:05.464Z,876.00
2022-10-12T07:47:05.476Z,892.00
2022-10-12T07:48:05.444Z,908.00
2022-10-12T07:49:05.440Z,924.00
2022-10-12T07:50:05.405Z,936.00
2022-10-12T07:51:05.554Z,956.00
2022-10-12T07:52:05.388Z,972.00
2022-10-12T07:53:05.397Z,988.00
2022-10-12T07:54:05.368Z,1008.00
2022-10-12T07:55:05.369Z,1032.00
2022-10-12T07:56:05.340Z,1056.00
2022-10-12T07:57:05.373Z,1084.00
2022-10-12T07:58:05.377Z,1116.00
2022-10-12T07:59:05.316Z,1144.00
2022-10-12T08:00:05.309Z,1160.00
2022-10-12T08:01:05.301Z,1184.00
2022-10-12T08:02:05.326Z,1208.00
2022-10-12T08:03:05.500Z,1224.00
2022-10-12T08:04:05.249Z,1244.00
2022-10-12T08:05:05.259Z,1256.00
2022-10-12T08:06:05.228Z,1268.00
2022-10-12T08:07:05.229Z,1272.00
2022-10-12T08:08:05.197Z,1276.00
2022-10-12T08:09:05.230Z,1268.00
2022-10-12T08:10:05.189Z,1248.00
2022-10-12T08:11:05.209Z,1232.00
2022-10-12T08:12:05.166Z,1216.00
2022-10-12T08:13:05.171Z,1204.00
2022-10-12T08:14:05.149Z,1124.00
2022-10-12T08:15:05.370Z,1000.00
2022-10-12T08:16:05.129Z,988.00
2022-10-12T08:17:05.121Z,976.00
2022-10-12T08:18:05.113Z,980.00
2022-10-12T08:19:05.121Z,964.00
2022-10-12T08:20:05.070Z,964.00
2022-10-12T08:21:05.277Z,952.00
2022-10-12T08:22:05.086Z,936.00
2022-10-12T08:23:05.036Z,928.00
2022-10-12T08:24:05.035Z,912.00
2022-10-12T08:25:05.435Z,900.00
2022-10-12T08:26:05.029Z,888.00
2022-10-12T08:27:05.010Z,876.00
2022-10-12T08:28:05.122Z,864.00
2022-10-12T08:29:04.988Z,848.00
2022-10-12T08:30:04.985Z,832.00
2022-10-12T08:31:04.966Z,816.00
2022-10-12T08:32:04.937Z,800.00
2022-10-12T08:33:10.112Z,788.00
2022-10-12T08:34:05.909Z,776.00
2022-10-12T08:35:04.943Z,764.00
2022-10-12T08:36:04.997Z,760.00
2022-10-12T08:37:04.977Z,752.00
2022-10-12T08:38:04.970Z,748.00
2022-10-12T08:39:04.970Z,740.00
2022-10-12T08:40:05.097Z,740.00
2022-10-12T08:41:05.032Z,744.00
2022-10-12T08:42:04.989Z,756.00
2022-10-12T08:43:05.010Z,760.00
2022-10-12T08:44:04.999Z,768.00
2022-10-12T08:45:05.150Z,784.00
2022-10-12T08:46:05.026Z,812.00
2022-10-12T08:47:05.038Z,856.00
2022-10-12T08:48:05.001Z,844.00
2022-10-12T08:49:04.850Z,884.00
2022-10-12T08:50:04.736Z,884.00
2022-10-12T08:51:04.727Z,956.00
2022-10-12T08:52:04.748Z,940.00
2022-10-12T08:53:04.723Z,1280.00
2022-10-12T08:54:04.743Z,1032.00
2022-10-12T08:55:04.757Z,1316.00
2022-10-12T08:56:04.790Z,1364.00
2022-10-12T08:57:04.818Z,1252.00
2022-10-12T08:58:04.834Z,1296.00
2022-10-12T08:59:04.866Z,1304.00
2022-10-12T09:00:04.877Z,1288.00
2022-10-12T09:01:04.829Z,1288.00
2022-10-12T09:02:04.750Z,1216.00
2022-10-12T09:03:04.613Z,1224.00
2022-10-12T09:04:04.574Z,1204.00
2022-10-12T09:05:04.578Z,1312.00
2022-10-12T09:06:04.556Z,1272.00
2022-10-12T09:07:04.550Z,1148.00
2022-10-12T09:08:04.570Z,1316.00
2022-10-12T09:09:04.530Z,1388.00
2022-10-12T09:10:04.511Z,1344.00
2022-10-12T09:11:04.502Z,1332.00
2022-10-12T09:12:04.498Z,1436.00
2022-10-12T09:13:04.531Z,1464.00
2022-10-12T09:14:04.464Z,1404.00
2022-10-12T09:15:04.483Z,1404.00
2022-10-12T09:16:04.466Z,1336.00
2022-10-12T09:17:04.442Z,1324.00
2022-10-12T09:18:04.447Z,1180.00
2022-10-12T09:19:04.419Z,1112.00
2022-10-12T09:20:04.425Z,1096.00
2022-10-12T09:21:04.390Z,1168.00
2022-10-12T09:22:04.396Z,1252.00
2022-10-12T09:23:04.382Z,1436.00
2022-10-12T09:24:04.355Z,1316.00
2022-10-12T09:25:04.419Z,1052.00
2022-10-12T09:26:04.318Z,1128.00
2022-10-12T09:27:04.331Z,1524.00
2022-10-12T09:28:05.162Z,1400.00
2022-10-12T09:29:04.356Z,1648.00
2022-10-12T09:30:04.303Z,1656.00
2022-10-12T09:31:04.278Z,1668.00
2022-10-12T09:32:04.282Z,1684.00
2022-10-12T09:33:04.263Z,1704.00
2022-10-12T09:34:04.265Z,1716.00
2022-10-12T09:35:04.243Z,1732.00
2022-10-12T09:36:04.210Z,1752.00
2022-10-12T09:37:04.210Z,1768.00
2022-10-12T09:38:04.179Z,1772.00
2022-10-12T09:39:04.391Z,1792.00
2022-10-12T09:40:04.169Z,1808.00
2022-10-12T09:41:04.170Z,1832.00
2022-10-12T09:42:04.161Z,1848.00
2022-10-12T09:43:04.156Z,1812.00
2022-10-12T09:44:04.133Z,1840.00
2022-10-12T09:45:04.111Z,1780.00
2022-10-12T09:46:04.103Z,1708.00
2022-10-12T09:47:04.090Z,1808.00
2022-10-12T09:48:04.084Z,1688.00
2022-10-12T09:49:04.096Z,1528.00
2022-10-12T09:50:04.247Z,1636.00
2022-10-12T09:51:04.082Z,1676.00
2022-10-12T09:52:04.023Z,1700.00
2022-10-12T09:53:04.023Z,1652.00
2022-10-12T09:54:04.041Z,1808.00
2022-10-12T09:55:05.488Z,1820.00
2022-10-12T09:56:04.003Z,1724.00
2022-10-12T09:57:04.003Z,1724.00
2022-10-12T09:58:03.964Z,1660.00
2022-10-12T09:59:03.962Z,1608.00
2022-10-12T10:00:03.959Z,1676.00
2022-10-12T10:01:03.944Z,1660.00
2022-10-12T10:02:03.982Z,1736.00
2022-10-12T10:03:03.936Z,1740.00
2022-10-12T10:04:03.905Z,1712.00
2022-10-12T10:05:03.895Z,1880.00
2022-10-12T10:06:03.883Z,1848.00
2022-10-12T10:07:03.876Z,1900.00
2022-10-12T10:08:03.877Z,2008.00
2022-10-12T10:09:03.833Z,1788.00
2022-10-12T10:10:03.835Z,1772.00
2022-10-12T10:11:03.847Z,2048.00
2022-10-12T10:12:03.815Z,2068.00
2022-10-12T10:13:03.791Z,2088.00
2022-10-12T10:14:03.796Z,1928.00
2022-10-12T10:15:03.767Z,1568.00
2022-10-12T10:16:03.763Z,1912.00
2022-10-12T10:17:03.772Z,1912.00
2022-10-12T10:18:03.905Z,1900.00
2022-10-12T10:19:03.722Z,1988.00
2022-10-12T10:20:03.734Z,1896.00
2022-10-12T10:21:03.734Z,2100.00
2022-10-12T10:22:03.734Z,1928.00
2022-10-12T10:23:03.674Z,1904.00
2022-10-12T10:24:03.674Z,2008.00
2022-10-12T10:25:03.668Z,1432.00
2022-10-12T10:26:03.706Z,1368.00
2022-10-12T10:27:03.661Z,1496.00
2022-10-12T10:28:03.623Z,1496.00
2022-10-12T10:29:03.631Z,1720.00
2022-10-12T10:30:17.653Z,1788.00
2022-10-12T10:31:04.599Z,2000.00
2022-10-12T10:32:03.603Z,2168.00
2022-10-12T10:33:03.618Z,1900.00
2022-10-12T10:34:03.568Z,2168.00
2022-10-12T10:35:03.573Z,1768.00
2022-10-12T10:36:03.535Z,1792.00
2022-10-12T10:37:03.546Z,1396.00
2022-10-12T10:38:03.536Z,1428.00
2022-10-12T10:39:03.507Z,1560.00
2022-10-12T10:40:03.495Z,1888.00
2022-10-12T10:41:03.487Z,1704.00
2022-10-12T10:42:03.468Z,1904.00
2022-10-12T10:43:03.479Z,2092.00
2022-10-12T10:44:03.459Z,1816.00
2022-10-12T10:45:03.466Z,1848.00
2022-10-12T10:46:03.429Z,1584.00
2022-10-12T10:47:03.428Z,1628.00
2022-10-12T10:48:03.408Z,1664.00
2022-10-12T10:49:03.427Z,1604.00
2022-10-12T10:50:03.701Z,1656.00
2022-10-12T10:51:03.380Z,1656.00
2022-10-12T10:52:03.350Z,1648.00
2022-10-12T10:53:03.359Z,1876.00
2022-10-12T10:54:03.339Z,1760.00
2022-10-12T10:55:03.365Z,1876.00
2022-10-12T10:56:03.342Z,2032.00
2022-10-12T10:57:03.315Z,2152.00
2022-10-12T10:58:03.288Z,2008.00
2022-10-12T10:59:07.587Z,2064.00
2022-10-12T11:00:33.444Z,1932.00
2022-10-12T11:01:04.260Z,2020.00
2022-10-12T11:02:03.294Z,2048.00
2022-10-12T11:03:03.248Z,1908.00
2022-10-12T11:04:03.220Z,1776.00
2022-10-12T11:05:03.221Z,1888.00
2022-10-12T11:06:03.212Z,1880.00
2022-10-12T11:07:03.192Z,1776.00
2022-10-12T11:08:03.173Z,1964.00
2022-10-12T11:09:03.175Z,1884.00
2022-10-12T11:10:03.163Z,1816.00
2022-10-12T11:11:03.261Z,1912.00
2022-10-12T11:12:03.128Z,2036.00
2022-10-12T11:13:03.151Z,2156.00
2022-10-12T11:14:03.104Z,2180.00
2022-10-12T11:15:03.151Z,2248.00
2022-10-12T11:16:03.174Z,2228.00
2022-10-12T11:17:03.092Z,2264.00
2022-10-12T11:18:03.115Z,2264.00
2022-10-12T11:19:03.172Z,2268.00
2022-10-12T11:20:03.093Z,2196.00
2022-10-12T11:21:03.153Z,2188.00
2022-10-12T11:22:03.160Z,1464.00
2022-10-12T11:23:03.106Z,1356.00
2022-10-12T11:24:03.248Z,1472.00
2022-10-12T11:25:03.197Z,1576.00
2022-10-12T11:26:03.132Z,1596.00
2022-10-12T11:27:03.132Z,1600.00
2022-10-12T11:28:03.125Z,1656.00
2022-10-12T11:29:03.172Z,1824.00
2022-10-12T11:30:09.299Z,1832.00
2022-10-12T11:31:03.955Z,1856.00
2022-10-12T11:32:03.056Z,1908.00
2022-10-12T11:33:02.892Z,1920.00
2022-10-12T11:34:02.885Z,1924.00
2022-10-12T11:35:02.885Z,1916.00
2022-10-12T11:36:02.856Z,1912.00
2022-10-12T11:37:20.130Z,1860.00
2022-10-12T11:38:03.946Z,1840.00
2022-10-12T11:39:06.904Z,1812.00
2022-10-12T11:40:02.805Z,1852.00
2022-10-12T11:41:14.234Z,1160.00
2022-10-12T11:42:20.843Z,1868.00
2022-10-12T11:43:06.524Z,1936.00
2022-10-12T11:44:02.778Z,1936.00
2022-10-12T11:45:02.759Z,1944.00
2022-10-12T11:46:02.786Z,1948.00
2022-10-12T11:47:02.760Z,1960.00
2022-10-12T11:48:02.734Z,1964.00
2022-10-12T11:49:02.716Z,1968.00
2022-10-12T11:50:02.708Z,1984.00
2022-10-12T11:51:04.326Z,2008.00
2022-10-12T11:52:02.665Z,2004.00
2022-10-12T11:53:02.697Z,1956.00
2022-10-12T11:54:02.677Z,1944.00
2022-10-12T11:55:02.646Z,1988.00
2022-10-12T11:56:02.638Z,2012.00
2022-10-12T11:57:02.631Z,2012.00
2022-10-12T11:58:02.629Z,2016.00
2022-10-12T11:59:02.618Z,2008.00
2022-10-12T12:00:02.593Z,2020.00
2022-10-12T12:01:02.602Z,2016.00
2022-10-12T12:02:02.599Z,1992.00
2022-10-12T12:03:02.561Z,1996.00
2022-10-12T12:04:17.168Z,1988.00
2022-10-12T12:05:03.597Z,1976.00
2022-10-12T12:06:02.556Z,1940.00
2022-10-12T12:07:02.540Z,1944.00
2022-10-12T12:08:02.553Z,1928.00
2022-10-12T12:09:02.561Z,1920.00
2022-10-12T12:10:02.589Z,1784.00
2022-10-12T12:11:02.589Z,1900.00
2022-10-12T12:12:02.569Z,1748.00
2022-10-12T12:13:02.681Z,1696.00
2022-10-12T12:14:02.569Z,1936.00
2022-10-12T12:15:02.628Z,1748.00
2022-10-12T12:16:02.661Z,1620.00
2022-10-12T12:17:02.613Z,1240.00
2022-10-12T12:18:02.634Z,1596.00
2022-10-12T12:19:02.890Z,1616.00
2022-10-12T12:20:02.498Z,1864.00
2022-10-12T12:21:02.604Z,1840.00
2022-10-12T12:22:02.342Z,1804.00
2022-10-12T12:23:02.360Z,1864.00
2022-10-12T12:24:02.358Z,1884.00
2022-10-12T12:25:02.313Z,1632.00
2022-10-12T12:26:02.313Z,1860.00
2022-10-12T12:27:02.301Z,1852.00
2022-10-12T12:28:02.277Z,1816.00
2022-10-12T12:29:02.262Z,1812.00
2022-10-12T12:30:02.274Z,1772.00
2022-10-12T12:31:02.243Z,1772.00
2022-10-12T12:32:02.254Z,1768.00
2022-10-12T12:33:02.223Z,1764.00
2022-10-12T12:34:02.242Z,1760.00
2022-10-12T12:35:02.233Z,1752.00
2022-10-12T12:36:02.173Z,1756.00
2022-10-12T12:37:02.162Z,1764.00
2022-10-12T12:38:02.156Z,1760.00
2022-10-12T12:39:02.173Z,1752.00
2022-10-12T12:40:02.161Z,1748.00
2022-10-12T12:41:02.134Z,1740.00
2022-10-12T12:42:02.728Z,1748.00